sensor_id;sensor_type;location;lat;lon;timestamp;pressure;altitude;pressure_sealevel;temperature;humidity
68656;BME280;55638;51.122;13.606;2024-02-23T09:00:34;98351.59;;;5.09;65.04
68656;BME280;55638;51.122;13.606;2024-02-23T09:02:08;98349.00;;;5.48;64.03
68656;BME280;55638;51.122;13.606;2024-02-23T09:03:42;98357.97;;;5.86;63.36
68656;BME280;55638;51.122;13.606;2024-02-23T09:05:14;98355.66;;;6.20;62.71
68656;BME280;55638;51.122;13.606;2024-02-23T09:06:46;98361.44;;;6.53;61.90
68656;BME280;55638;51.122;13.606;2024-02-23T09:08:20;98364.69;;;6.84;61.37
68656;BME280;55638;51.122;13.606;2024-02-23T09:09:52;98364.69;;;7.11;60.96
68656;BME280;55638;51.122;13.606;2024-02-23T09:11:26;98368.31;;;7.38;60.34
68656;BME280;55638;51.122;13.606;2024-02-23T09:12:58;98373.75;;;7.64;59.94
68656;BME280;55638;51.122;13.606;2024-02-23T09:14:30;98358.19;;;7.85;59.17
68656;BME280;55638;51.122;13.606;2024-02-23T09:16:02;98367.72;;;8.06;58.67
68656;BME280;55638;51.122;13.606;2024-02-23T09:17:34;98369.25;;;8.26;58.28
68656;BME280;55638;51.122;13.606;2024-02-23T09:19:07;98374.41;;;8.46;57.79
68656;BME280;55638;51.122;13.606;2024-02-23T09:20:38;98377.00;;;8.64;57.51
68656;BME280;55638;51.122;13.606;2024-02-23T09:22:11;98377.94;;;8.80;57.10
68656;BME280;55638;51.122;13.606;2024-02-23T09:23:42;98379.69;;;8.98;57.47
68656;BME280;55638;51.122;13.606;2024-02-23T09:25:14;98381.59;;;9.14;56.75
68656;BME280;55638;51.122;13.606;2024-02-23T09:26:47;98385.31;;;9.29;56.13
68656;BME280;55638;51.122;13.606;2024-02-23T09:28:19;98384.72;;;9.43;56.29
68656;BME280;55638;51.122;13.606;2024-02-23T09:29:53;98379.72;;;9.57;55.32
68656;BME280;55638;51.122;13.606;2024-02-23T09:31:25;98390.00;;;9.69;55.45
68656;BME280;55638;51.122;13.606;2024-02-23T09:32:57;98381.44;;;9.82;55.29
68656;BME280;55638;51.122;13.606;2024-02-23T09:34:30;98380.94;;;9.95;54.63
68656;BME280;55638;51.122;13.606;2024-02-23T09:36:03;98387.13;;;10.04;54.38
68656;BME280;55638;51.122;13.606;2024-02-23T09:37:35;98395.88;;;10.14;54.05
68656;BME280;55638;51.122;13.606;2024-02-23T09:39:07;98392.16;;;10.23;53.35
68656;BME280;55638;51.122;13.606;2024-02-23T09:40:38;98388.44;;;10.32;53.23
68656;BME280;55638;51.122;13.606;2024-02-23T09:42:10;98394.84;;;10.39;53.42
68656;BME280;55638;51.122;13.606;2024-02-23T09:43:44;98399.03;;;10.50;52.94
68656;BME280;55638;51.122;13.606;2024-02-23T09:45:17;98398.31;;;10.56;53.04
68656;BME280;55638;51.122;13.606;2024-02-23T09:46:49;98392.09;;;10.64;52.59
68656;BME280;55638;51.122;13.606;2024-02-23T09:48:21;98397.81;;;10.69;52.27
68656;BME280;55638;51.122;13.606;2024-02-23T09:49:55;98390.91;;;10.75;51.89
68656;BME280;55638;51.122;13.606;2024-02-23T09:51:27;98391.41;;;10.78;51.22
68656;BME280;55638;51.122;13.606;2024-02-23T09:53:01;98398.13;;;10.82;50.96
68656;BME280;55638;51.122;13.606;2024-02-23T09:54:33;98384.28;;;10.85;51.21
68656;BME280;55638;51.122;13.606;2024-02-23T09:56:06;98389.53;;;10.87;50.74
68656;BME280;55638;51.122;13.606;2024-02-23T09:57:40;98378.56;;;10.88;50.36
68656;BME280;55638;51.122;13.606;2024-02-23T09:59:13;98373.84;;;10.91;50.33
68656;BME280;55638;51.122;13.606;2024-02-23T10:00:45;98379.91;;;10.93;50.08
68656;BME280;55638;51.122;13.606;2024-02-23T10:02:17;98369.78;;;10.95;50.44
68656;BME280;55638;51.122;13.606;2024-02-23T10:03:49;98369.63;;;10.96;50.00
68656;BME280;55638;51.122;13.606;2024-02-23T10:05:30;98374.81;;;10.98;48.56
68656;BME280;55638;51.122;13.606;2024-02-23T10:07:10;98375.50;;;11.00;49.85
68656;BME280;55638;51.122;13.606;2024-02-23T10:08:42;98385.25;;;11.01;49.60
68656;BME280;55638;51.122;13.606;2024-02-23T10:10:14;98381.38;;;11.03;49.74
68656;BME280;55638;51.122;13.606;2024-02-23T10:11:52;98383.88;;;11.05;49.71
68656;BME280;55638;51.122;13.606;2024-02-23T10:13:24;98397.00;;;11.08;49.29
68656;BME280;55638;51.122;13.606;2024-02-23T10:14:56;98389.59;;;11.10;49.27
68656;BME280;55638;51.122;13.606;2024-02-23T10:16:28;98384.22;;;11.10;49.31
68656;BME280;55638;51.122;13.606;2024-02-23T10:18:00;98383.19;;;11.11;48.69
68656;BME280;55638;51.122;13.606;2024-02-23T10:19:33;98384.88;;;11.12;48.53
68656;BME280;55638;51.122;13.606;2024-02-23T10:21:05;98395.28;;;11.15;48.42
68656;BME280;55638;51.122;13.606;2024-02-23T10:22:37;98399.34;;;11.19;48.44
68656;BME280;55638;51.122;13.606;2024-02-23T10:24:09;98399.00;;;11.22;48.42
68656;BME280;55638;51.122;13.606;2024-02-23T10:25:41;98404.03;;;11.25;48.25
68656;BME280;55638;51.122;13.606;2024-02-23T10:27:13;98407.38;;;11.27;48.14
68656;BME280;55638;51.122;13.606;2024-02-23T10:28:45;98407.22;;;11.29;48.23
68656;BME280;55638;51.122;13.606;2024-02-23T10:30:19;98413.09;;;11.32;48.00
68656;BME280;55638;51.122;13.606;2024-02-23T10:31:51;98411.91;;;11.35;48.02
68656;BME280;55638;51.122;13.606;2024-02-23T10:33:24;98418.63;;;11.39;48.28
68656;BME280;55638;51.122;13.606;2024-02-23T10:35:00;98423.47;;;11.44;47.58
68656;BME280;55638;51.122;13.606;2024-02-23T10:36:33;98433.56;;;11.50;47.96
68656;BME280;55638;51.122;13.606;2024-02-23T10:38:07;98436.56;;;11.55;47.04
68656;BME280;55638;51.122;13.606;2024-02-23T10:39:41;98437.53;;;11.62;48.28
68656;BME280;55638;51.122;13.606;2024-02-23T10:41:13;98447.63;;;11.68;47.79
68656;BME280;55638;51.122;13.606;2024-02-23T10:42:47;98439.81;;;11.73;46.79
68656;BME280;55638;51.122;13.606;2024-02-23T10:44:27;98440.84;;;11.80;46.68
68656;BME280;55638;51.122;13.606;2024-02-23T10:46:00;98450.25;;;11.85;46.96
68656;BME280;55638;51.122;13.606;2024-02-23T10:47:35;98437.03;;;11.90;46.81
68656;BME280;55638;51.122;13.606;2024-02-23T10:49:08;98433.81;;;11.94;46.91
68656;BME280;55638;51.122;13.606;2024-02-23T10:50:41;98442.41;;;11.98;46.43
68656;BME280;55638;51.122;13.606;2024-02-23T10:52:17;98440.00;;;12.03;46.02
68656;BME280;55638;51.122;13.606;2024-02-23T10:53:49;98446.41;;;12.02;45.92
68656;BME280;55638;51.122;13.606;2024-02-23T10:55:22;98450.81;;;12.03;45.31
68656;BME280;55638;51.122;13.606;2024-02-23T10:56:54;98437.66;;;12.00;45.26
68656;BME280;55638;51.122;13.606;2024-02-23T10:58:28;98442.22;;;11.99;44.92
68656;BME280;55638;51.122;13.606;2024-02-23T11:00:00;98448.84;;;11.97;44.85
68656;BME280;55638;51.122;13.606;2024-02-23T11:01:33;98447.50;;;11.93;44.93
68656;BME280;55638;51.122;13.606;2024-02-23T11:03:06;98461.34;;;11.90;44.09
68656;BME280;55638;51.122;13.606;2024-02-23T11:04:39;98460.88;;;11.86;44.61
68656;BME280;55638;51.122;13.606;2024-02-23T11:06:11;98474.91;;;11.81;44.45
68656;BME280;55638;51.122;13.606;2024-02-23T11:07:46;98465.81;;;11.74;44.19
68656;BME280;55638;51.122;13.606;2024-02-23T11:09:22;98475.25;;;11.70;44.70
68656;BME280;55638;51.122;13.606;2024-02-23T11:10:54;98478.34;;;11.67;44.89
68656;BME280;55638;51.122;13.606;2024-02-23T11:12:29;98480.72;;;11.62;43.44
68656;BME280;55638;51.122;13.606;2024-02-23T11:14:07;98481.06;;;11.59;42.34
68656;BME280;55638;51.122;13.606;2024-02-23T11:15:42;98484.13;;;11.56;43.86
68656;BME280;55638;51.122;13.606;2024-02-23T11:17:18;98487.16;;;11.53;40.82
68656;BME280;55638;51.122;13.606;2024-02-23T11:19:04;98484.19;;;11.48;43.19
68656;BME280;55638;51.122;13.606;2024-02-23T11:20:36;98482.81;;;11.44;44.11
68656;BME280;55638;51.122;13.606;2024-02-23T11:22:09;98475.75;;;11.43;44.45
68656;BME280;55638;51.122;13.606;2024-02-23T11:23:53;98475.75;;;11.43;44.79
68656;BME280;55638;51.122;13.606;2024-02-23T11:25:29;98468.34;;;11.45;43.66
68656;BME280;55638;51.122;13.606;2024-02-23T11:27:01;98484.34;;;11.46;44.22
68656;BME280;55638;51.122;13.606;2024-02-23T11:28:50;98482.13;;;11.50;43.32
68656;BME280;55638;51.122;13.606;2024-02-23T11:30:26;98480.09;;;11.52;44.29
68656;BME280;55638;51.122;13.606;2024-02-23T11:31:58;98477.22;;;11.53;44.18
68656;BME280;55638;51.122;13.606;2024-02-23T11:33:36;98474.34;;;11.55;43.71
68656;BME280;55638;51.122;13.606;2024-02-23T11:35:10;98476.03;;;11.56;43.79
68656;BME280;55638;51.122;13.606;2024-02-23T11:36:50;98471.47;;;11.56;43.37
68656;BME280;55638;51.122;13.606;2024-02-23T11:38:22;98465.72;;;11.59;44.45
68656;BME280;55638;51.122;13.606;2024-02-23T11:39:56;98462.66;;;11.63;44.04
68656;BME280;55638;51.122;13.606;2024-02-23T11:41:29;98462.50;;;11.64;43.82
68656;BME280;55638;51.122;13.606;2024-02-23T11:43:01;98467.56;;;11.67;43.53
68656;BME280;55638;51.122;13.606;2024-02-23T11:44:33;98463.16;;;11.66;43.70
68656;BME280;55638;51.122;13.606;2024-02-23T11:46:05;98460.44;;;11.66;43.89
68656;BME280;55638;51.122;13.606;2024-02-23T11:47:38;98462.16;;;11.67;43.32
68656;BME280;55638;51.122;13.606;2024-02-23T11:49:10;98468.38;;;11.68;43.32
68656;BME280;55638;51.122;13.606;2024-02-23T11:50:42;98464.66;;;11.69;43.32
68656;BME280;55638;51.122;13.606;2024-02-23T11:52:14;98467.34;;;11.69;43.35
68656;BME280;55638;51.122;13.606;2024-02-23T11:53:49;98464.47;;;11.70;42.92
68656;BME280;55638;51.122;13.606;2024-02-23T11:55:22;98465.50;;;11.69;42.66
68656;BME280;55638;51.122;13.606;2024-02-23T11:56:55;98467.56;;;11.67;42.54
68656;BME280;55638;51.122;13.606;2024-02-23T11:58:28;98478.34;;;11.67;42.69
68656;BME280;55638;51.122;13.606;2024-02-23T12:00:02;98470.41;;;11.66;42.38
68656;BME280;55638;51.122;13.606;2024-02-23T12:01:35;98468.91;;;11.63;42.60
68656;BME280;55638;51.122;13.606;2024-02-23T12:03:07;98479.06;;;11.61;42.71
68656;BME280;55638;51.122;13.606;2024-02-23T12:04:39;98472.97;;;11.59;42.59
68656;BME280;55638;51.122;13.606;2024-02-23T12:06:14;98480.88;;;11.60;42.56
68656;BME280;55638;51.122;13.606;2024-02-23T12:07:47;98473.16;;;11.57;42.50
68656;BME280;55638;51.122;13.606;2024-02-23T12:09:19;98467.56;;;11.59;42.79
68656;BME280;55638;51.122;13.606;2024-02-23T12:10:54;98468.41;;;11.59;42.48
68656;BME280;55638;51.122;13.606;2024-02-23T12:12:26;98459.47;;;11.59;42.79
68656;BME280;55638;51.122;13.606;2024-02-23T12:13:58;98460.16;;;11.61;42.65
68656;BME280;55638;51.122;13.606;2024-02-23T12:15:31;98459.28;;;11.60;42.60
68656;BME280;55638;51.122;13.606;2024-02-23T12:17:03;98463.50;;;11.63;42.94
68656;BME280;55638;51.122;13.606;2024-02-23T12:18:35;98471.25;;;11.66;43.14
68656;BME280;55638;51.122;13.606;2024-02-23T12:20:08;98464.84;;;11.67;43.21
68656;BME280;55638;51.122;13.606;2024-02-23T12:21:40;98468.88;;;11.71;43.19
68656;BME280;55638;51.122;13.606;2024-02-23T12:23:12;98471.06;;;11.76;43.30
68656;BME280;55638;51.122;13.606;2024-02-23T12:24:45;98466.13;;;11.79;43.03
68656;BME280;55638;51.122;13.606;2024-02-23T12:26:17;98465.78;;;11.82;42.98
68656;BME280;55638;51.122;13.606;2024-02-23T12:27:56;98469.63;;;11.88;42.40
68656;BME280;55638;51.122;13.606;2024-02-23T12:29:31;98470.94;;;11.92;43.33
68656;BME280;55638;51.122;13.606;2024-02-23T12:31:04;98470.59;;;11.95;42.94
68656;BME280;55638;51.122;13.606;2024-02-23T12:32:36;98466.50;;;11.99;43.20
68656;BME280;55638;51.122;13.606;2024-02-23T12:34:11;98466.63;;;12.06;42.38
68656;BME280;55638;51.122;13.606;2024-02-23T12:35:44;98462.94;;;12.07;42.74
68656;BME280;55638;51.122;13.606;2024-02-23T12:37:17;98458.84;;;12.11;42.36
68656;BME280;55638;51.122;13.606;2024-02-23T12:38:49;98457.66;;;12.14;42.61
68656;BME280;55638;51.122;13.606;2024-02-23T12:40:21;98453.56;;;12.18;42.70
68656;BME280;55638;51.122;13.606;2024-02-23T12:41:53;98458.44;;;12.22;42.82
68656;BME280;55638;51.122;13.606;2024-02-23T12:43:25;98456.00;;;12.27;42.60
68656;BME280;55638;51.122;13.606;2024-02-23T12:44:57;98448.38;;;12.31;42.41
68656;BME280;55638;51.122;13.606;2024-02-23T12:46:29;98442.44;;;12.36;42.78
68656;BME280;55638;51.122;13.606;2024-02-23T12:48:01;98441.69;;;12.42;42.19
68656;BME280;55638;51.122;13.606;2024-02-23T12:49:33;98444.69;;;12.47;42.31
68656;BME280;55638;51.122;13.606;2024-02-23T12:51:05;98446.66;;;12.53;41.93
68656;BME280;55638;51.122;13.606;2024-02-23T12:52:37;98446.09;;;12.58;42.04
68656;BME280;55638;51.122;13.606;2024-02-23T12:54:09;98443.88;;;12.61;41.73
68656;BME280;55638;51.122;13.606;2024-02-23T12:55:41;98437.09;;;12.65;41.13
68656;BME280;55638;51.122;13.606;2024-02-23T12:57:13;98434.19;;;12.67;40.94
68656;BME280;55638;51.122;13.606;2024-02-23T12:58:45;98437.72;;;12.67;40.98
68656;BME280;55638;51.122;13.606;2024-02-23T13:00:17;98440.06;;;12.70;41.03
68656;BME280;55638;51.122;13.606;2024-02-23T13:01:49;98438.75;;;12.66;40.66
68656;BME280;55638;51.122;13.606;2024-02-23T13:03:25;98446.88;;;12.66;40.58
68656;BME280;55638;51.122;13.606;2024-02-23T13:04:58;98438.09;;;12.64;40.56
68656;BME280;55638;51.122;13.606;2024-02-23T13:06:30;98449.09;;;12.63;40.81
68656;BME280;55638;51.122;13.606;2024-02-23T13:08:02;98442.19;;;12.60;40.52
68656;BME280;55638;51.122;13.606;2024-02-23T13:09:34;98447.97;;;12.57;40.94
68656;BME280;55638;51.122;13.606;2024-02-23T13:11:06;98451.72;;;12.56;40.83
68656;BME280;55638;51.122;13.606;2024-02-23T13:12:38;98450.41;;;12.52;40.46
68656;BME280;55638;51.122;13.606;2024-02-23T13:14:10;98444.31;;;12.50;40.31
68656;BME280;55638;51.122;13.606;2024-02-23T13:15:46;98444.03;;;12.45;38.73
68656;BME280;55638;51.122;13.606;2024-02-23T13:17:18;98440.22;;;12.39;39.62
68656;BME280;55638;51.122;13.606;2024-02-23T13:18:50;98448.22;;;12.33;39.44
68656;BME280;55638;51.122;13.606;2024-02-23T13:20:22;98444.38;;;12.27;39.53
68656;BME280;55638;51.122;13.606;2024-02-23T13:21:54;98457.75;;;12.20;39.94
68656;BME280;55638;51.122;13.606;2024-02-23T13:23:26;98451.22;;;12.15;39.84
68656;BME280;55638;51.122;13.606;2024-02-23T13:24:59;98454.63;;;12.09;39.86
68656;BME280;55638;51.122;13.606;2024-02-23T13:26:30;98446.25;;;12.03;40.14
68656;BME280;55638;51.122;13.606;2024-02-23T13:28:03;98451.19;;;12.00;40.20
68656;BME280;55638;51.122;13.606;2024-02-23T13:29:36;98448.16;;;11.95;39.93
68656;BME280;55638;51.122;13.606;2024-02-23T13:31:08;98446.84;;;11.91;39.82
68656;BME280;55638;51.122;13.606;2024-02-23T13:32:40;98448.41;;;11.85;39.87
68656;BME280;55638;51.122;13.606;2024-02-23T13:34:11;98449.59;;;11.82;40.17
68656;BME280;55638;51.122;13.606;2024-02-23T13:35:44;98449.09;;;11.79;40.20
68656;BME280;55638;51.122;13.606;2024-02-23T13:37:16;98451.31;;;11.75;40.18
68656;BME280;55638;51.122;13.606;2024-02-23T13:38:48;98447.09;;;11.73;40.07
68656;BME280;55638;51.122;13.606;2024-02-23T13:40:20;98458.72;;;11.73;40.34
68656;BME280;55638;51.122;13.606;2024-02-23T13:41:52;98450.97;;;11.70;40.12
68656;BME280;55638;51.122;13.606;2024-02-23T13:43:24;98456.56;;;11.69;40.23
68656;BME280;55638;51.122;13.606;2024-02-23T13:44:56;98455.88;;;11.67;40.00
68656;BME280;55638;51.122;13.606;2024-02-23T13:46:30;98449.66;;;11.66;40.20
68656;BME280;55638;51.122;13.606;2024-02-23T13:48:03;98451.72;;;11.64;40.11
68656;BME280;55638;51.122;13.606;2024-02-23T13:49:37;98445.78;;;11.60;40.00
68656;BME280;55638;51.122;13.606;2024-02-23T13:51:09;98441.63;;;11.58;40.14
68656;BME280;55638;51.122;13.606;2024-02-23T13:52:41;98444.66;;;11.55;40.05
68656;BME280;55638;51.122;13.606;2024-02-23T13:54:13;98443.31;;;11.51;39.91
68656;BME280;55638;51.122;13.606;2024-02-23T13:55:45;98443.03;;;11.46;39.74
68656;BME280;55638;51.122;13.606;2024-02-23T13:57:17;98447.09;;;11.42;40.07
68656;BME280;55638;51.122;13.606;2024-02-23T13:58:49;98451.81;;;11.40;39.90
68656;BME280;55638;51.122;13.606;2024-02-23T14:00:21;98455.22;;;11.33;39.65
68656;BME280;55638;51.122;13.606;2024-02-23T14:01:53;98450.53;;;11.27;39.51
68656;BME280;55638;51.122;13.606;2024-02-23T14:03:25;98446.50;;;11.23;39.60
68656;BME280;55638;51.122;13.606;2024-02-23T14:05:02;98451.56;;;11.18;39.14
68656;BME280;55638;51.122;13.606;2024-02-23T14:06:38;98448.72;;;11.11;39.71
68656;BME280;55638;51.122;13.606;2024-02-23T14:08:11;98454.66;;;11.07;39.90
68656;BME280;55638;51.122;13.606;2024-02-23T14:09:43;98461.56;;;11.01;39.62
68656;BME280;55638;51.122;13.606;2024-02-23T14:11:15;98456.72;;;10.97;40.01
68656;BME280;55638;51.122;13.606;2024-02-23T14:12:47;98458.25;;;10.91;40.06
68656;BME280;55638;51.122;13.606;2024-02-23T14:14:22;98456.06;;;10.86;40.06
68656;BME280;55638;51.122;13.606;2024-02-23T14:15:55;98451.19;;;10.82;40.31
68656;BME280;55638;51.122;13.606;2024-02-23T14:17:27;98454.56;;;10.76;40.20
68656;BME280;55638;51.122;13.606;2024-02-23T14:18:59;98457.59;;;10.73;40.44
68656;BME280;55638;51.122;13.606;2024-02-23T14:20:31;98453.41;;;10.70;40.48
68656;BME280;55638;51.122;13.606;2024-02-23T14:22:03;98451.06;;;10.67;40.74
68656;BME280;55638;51.122;13.606;2024-02-23T14:23:36;98459.28;;;10.65;40.73
68656;BME280;55638;51.122;13.606;2024-02-23T14:25:08;98468.38;;;10.64;40.71
68656;BME280;55638;51.122;13.606;2024-02-23T14:26:40;98470.38;;;10.62;40.73
68656;BME280;55638;51.122;13.606;2024-02-23T14:28:12;98470.38;;;10.62;40.81
68656;BME280;55638;51.122;13.606;2024-02-23T14:29:45;98462.50;;;10.61;40.95
68656;BME280;55638;51.122;13.606;2024-02-23T14:31:18;98462.66;;;10.59;40.80
68656;BME280;55638;51.122;13.606;2024-02-23T14:32:50;98463.84;;;10.57;40.73
68656;BME280;55638;51.122;13.606;2024-02-23T14:34:22;98459.28;;;10.57;40.86
68656;BME280;55638;51.122;13.606;2024-02-23T14:35:55;98462.16;;;10.56;40.77
68656;BME280;55638;51.122;13.606;2024-02-23T14:37:27;98463.31;;;10.53;40.89
68656;BME280;55638;51.122;13.606;2024-02-23T14:38:59;98462.66;;;10.51;40.72
68656;BME280;55638;51.122;13.606;2024-02-23T14:40:31;98462.66;;;10.51;40.88
68656;BME280;55638;51.122;13.606;2024-02-23T14:42:03;98460.13;;;10.50;41.04
68656;BME280;55638;51.122;13.606;2024-02-23T14:43:36;98462.31;;;10.46;40.75
68656;BME280;55638;51.122;13.606;2024-02-23T14:45:08;98461.50;;;10.46;40.87
68656;BME280;55638;51.122;13.606;2024-02-23T14:46:41;98458.09;;;10.43;41.07
68656;BME280;55638;51.122;13.606;2024-02-23T14:48:15;98457.63;;;10.40;41.00
68656;BME280;55638;51.122;13.606;2024-02-23T14:49:47;98460.50;;;10.38;40.85
68656;BME280;55638;51.122;13.606;2024-02-23T14:51:19;98456.28;;;10.36;40.86
68656;BME280;55638;51.122;13.606;2024-02-23T14:52:51;98466.22;;;10.35;41.11
68656;BME280;55638;51.122;13.606;2024-02-23T14:54:23;98460.13;;;10.33;41.31
68656;BME280;55638;51.122;13.606;2024-02-23T14:55:54;98469.25;;;10.32;41.26
68656;BME280;55638;51.122;13.606;2024-02-23T14:57:26;98474.81;;;10.31;41.11
68656;BME280;55638;51.122;13.606;2024-02-23T14:58:58;98465.22;;;10.28;40.92
68656;BME280;55638;51.122;13.606;2024-02-23T15:00:32;98458.31;;;10.26;40.97
68656;BME280;55638;51.122;13.606;2024-02-23T15:02:05;98467.41;;;10.25;41.08
68656;BME280;55638;51.122;13.606;2024-02-23T15:03:38;98467.88;;;10.20;40.96
68656;BME280;55638;51.122;13.606;2024-02-23T15:05:10;98463.66;;;10.17;40.97
68656;BME280;55638;51.122;13.606;2024-02-23T15:06:42;98466.88;;;10.13;40.96
68656;BME280;55638;51.122;13.606;2024-02-23T15:08:14;98459.97;;;10.10;40.94
68656;BME280;55638;51.122;13.606;2024-02-23T15:09:46;98456.13;;;10.05;40.91
68656;BME280;55638;51.122;13.606;2024-02-23T15:11:18;98454.59;;;10.02;40.88
68656;BME280;55638;51.122;13.606;2024-02-23T15:12:50;98449.69;;;9.98;41.18
68656;BME280;55638;51.122;13.606;2024-02-23T15:14:22;98448.22;;;9.95;41.16
68656;BME280;55638;51.122;13.606;2024-02-23T15:15:54;98449.53;;;9.91;41.23
68656;BME280;55638;51.122;13.606;2024-02-23T15:17:28;98442.81;;;9.87;41.25
68656;BME280;55638;51.122;13.606;2024-02-23T15:19:00;98451.19;;;9.84;41.25
68656;BME280;55638;51.122;13.606;2024-02-23T15:20:33;98440.78;;;9.81;41.40
68656;BME280;55638;51.122;13.606;2024-02-23T15:22:05;98451.03;;;9.77;41.46
68656;BME280;55638;51.122;13.606;2024-02-23T15:23:39;98445.97;;;9.74;41.50
68656;BME280;55638;51.122;13.606;2024-02-23T15:25:15;98445.28;;;9.72;41.40
68656;BME280;55638;51.122;13.606;2024-02-23T15:26:47;98454.56;;;9.69;41.48
68656;BME280;55638;51.122;13.606;2024-02-23T15:28:19;98461.94;;;9.67;41.63
68656;BME280;55638;51.122;13.606;2024-02-23T15:29:54;98462.25;;;9.64;41.53
68656;BME280;55638;51.122;13.606;2024-02-23T15:31:28;98468.81;;;9.62;41.51
68656;BME280;55638;51.122;13.606;2024-02-23T15:33:00;98469.13;;;9.59;41.61
68656;BME280;55638;51.122;13.606;2024-02-23T15:34:32;98470.47;;;9.55;41.49
68656;BME280;55638;51.122;13.606;2024-02-23T15:36:06;98468.13;;;9.52;41.35
68656;BME280;55638;51.122;13.606;2024-02-23T15:37:40;98464.88;;;9.48;41.54
68656;BME280;55638;51.122;13.606;2024-02-23T15:39:12;98463.53;;;9.44;41.68
68656;BME280;55638;51.122;13.606;2024-02-23T15:40:44;98464.19;;;9.38;41.57
68656;BME280;55638;51.122;13.606;2024-02-23T15:42:16;98467.19;;;9.35;41.61
68656;BME280;55638;51.122;13.606;2024-02-23T15:43:49;98464.13;;;9.30;41.60
68656;BME280;55638;51.122;13.606;2024-02-23T15:45:21;98465.31;;;9.27;41.69
68656;BME280;55638;51.122;13.606;2024-02-23T15:46:53;98460.41;;;9.22;41.69
68656;BME280;55638;51.122;13.606;2024-02-23T15:48:25;98450.16;;;9.18;41.68
68656;BME280;55638;51.122;13.606;2024-02-23T15:49:58;98446.13;;;9.14;41.41
68656;BME280;55638;51.122;13.606;2024-02-23T15:51:50;98444.72;;;9.10;41.85
68656;BME280;55638;51.122;13.606;2024-02-23T15:53:31;98440.00;;;9.03;41.62
68656;BME280;55638;51.122;13.606;2024-02-23T15:55:04;98441.34;;;8.99;41.63
68656;BME280;55638;51.122;13.606;2024-02-23T15:56:36;98448.03;;;8.95;41.71
68656;BME280;55638;51.122;13.606;2024-02-23T15:58:10;98444.00;;;8.91;41.64
68656;BME280;55638;51.122;13.606;2024-02-23T15:59:42;98437.22;;;8.87;41.83
68656;BME280;55638;51.122;13.606;2024-02-23T16:01:14;98429.81;;;8.81;41.68
68656;BME280;55638;51.122;13.606;2024-02-23T16:02:46;98442.72;;;8.77;41.95
68656;BME280;55638;51.122;13.606;2024-02-23T16:04:18;98437.66;;;8.74;41.91
68656;BME280;55638;51.122;13.606;2024-02-23T16:05:51;98441.38;;;8.73;41.86
68656;BME280;55638;51.122;13.606;2024-02-23T16:07:24;98438.34;;;8.68;42.02
68656;BME280;55638;51.122;13.606;2024-02-23T16:08:56;98440.47;;;8.65;42.07
68656;BME280;55638;51.122;13.606;2024-02-23T16:10:31;98450.69;;;8.61;42.07
68656;BME280;55638;51.122;13.606;2024-02-23T16:12:04;98459.06;;;8.58;42.07
68656;BME280;55638;51.122;13.606;2024-02-23T16:13:40;98465.59;;;8.55;42.24
68656;BME280;55638;51.122;13.606;2024-02-23T16:15:12;98477.81;;;8.50;42.55
68656;BME280;55638;51.122;13.606;2024-02-23T16:16:44;98487.19;;;8.46;42.57
68656;BME280;55638;51.122;13.606;2024-02-23T16:18:16;98495.69;;;8.41;42.72
68656;BME280;55638;51.122;13.606;2024-02-23T16:19:49;98514.13;;;8.36;42.61
68656;BME280;55638;51.122;13.606;2024-02-23T16:21:21;98515.41;;;8.32;42.45
68656;BME280;55638;51.122;13.606;2024-02-23T16:22:53;98528.47;;;8.27;42.46
68656;BME280;55638;51.122;13.606;2024-02-23T16:24:25;98534.41;;;8.21;42.69
68656;BME280;55638;51.122;13.606;2024-02-23T16:25:58;98544.91;;;8.14;42.84
68656;BME280;55638;51.122;13.606;2024-02-23T16:27:30;98546.38;;;8.08;42.92
68656;BME280;55638;51.122;13.606;2024-02-23T16:29:04;98547.69;;;8.04;43.04
68656;BME280;55638;51.122;13.606;2024-02-23T16:30:38;98556.16;;;8.00;43.22
68656;BME280;55638;51.122;13.606;2024-02-23T16:32:10;98561.28;;;7.93;42.91
68656;BME280;55638;51.122;13.606;2024-02-23T16:33:44;98561.91;;;7.87;43.15
68656;BME280;55638;51.122;13.606;2024-02-23T16:35:16;98568.56;;;7.83;43.14
68656;BME280;55638;51.122;13.606;2024-02-23T16:36:50;98559.13;;;7.79;43.25
68656;BME280;55638;51.122;13.606;2024-02-23T16:38:23;98567.63;;;7.74;43.32
68656;BME280;55638;51.122;13.606;2024-02-23T16:39:55;98560.88;;;7.70;43.38
68656;BME280;55638;51.122;13.606;2024-02-23T16:41:27;98574.75;;;7.66;43.64
68656;BME280;55638;51.122;13.606;2024-02-23T16:42:59;98575.88;;;7.63;43.42
68656;BME280;55638;51.122;13.606;2024-02-23T16:44:31;98571.63;;;7.60;43.72
68656;BME280;55638;51.122;13.606;2024-02-23T16:46:03;98561.38;;;7.56;43.39
68656;BME280;55638;51.122;13.606;2024-02-23T16:47:35;98561.84;;;7.51;43.49
68656;BME280;55638;51.122;13.606;2024-02-23T16:49:07;98556.78;;;7.48;43.69
68656;BME280;55638;51.122;13.606;2024-02-23T16:50:39;98552.53;;;7.46;43.54
68656;BME280;55638;51.122;13.606;2024-02-23T16:52:17;98558.03;;;7.44;43.55
68656;BME280;55638;51.122;13.606;2024-02-23T16:53:49;98557.50;;;7.40;43.59
68656;BME280;55638;51.122;13.606;2024-02-23T16:55:22;98554.25;;;7.37;43.72
68656;BME280;55638;51.122;13.606;2024-02-23T16:56:53;98547.22;;;7.36;43.71
68656;BME280;55638;51.122;13.606;2024-02-23T16:58:29;98547.34;;;7.34;43.56
68656;BME280;55638;51.122;13.606;2024-02-23T17:00:05;98547.66;;;7.31;43.64
68656;BME280;55638;51.122;13.606;2024-02-23T17:01:37;98542.44;;;7.30;43.70
68656;BME280;55638;51.122;13.606;2024-02-23T17:03:09;98537.38;;;7.27;43.95
68656;BME280;55638;51.122;13.606;2024-02-23T17:04:41;98539.34;;;7.25;43.91
68656;BME280;55638;51.122;13.606;2024-02-23T17:06:13;98542.19;;;7.23;43.91
68656;BME280;55638;51.122;13.606;2024-02-23T17:07:46;98537.13;;;7.20;43.90